createdAt,value
2022-12-11T00:01:20.567Z,7.37
2022-12-11T00:03:48.748Z,7.35
2022-12-11T00:06:18.883Z,7.35
2022-12-11T00:08:46.604Z,7.41
2022-12-11T00:11:18.895Z,7.42
2022-12-11T00:13:47.285Z,7.35
2022-12-11T00:16:14.779Z,7.21
2022-12-11T00:18:42.495Z,7.26
2022-12-11T00:21:13.609Z,7.29
2022-12-11T00:23:41.207Z,7.31
2022-12-11T00:26:12.705Z,7.30
2022-12-11T00:28:39.909Z,7.43
2022-12-11T00:31:09.202Z,7.65
2022-12-11T00:33:36.283Z,7.53
2022-12-11T00:36:04.070Z,7.60
2022-12-11T00:38:31.212Z,7.53
2022-12-11T00:40:59.792Z,7.50
2022-12-11T00:43:27.331Z,7.53
2022-12-11T00:45:55.121Z,7.60
2022-12-11T00:48:22.469Z,7.49
2022-12-11T00:50:49.908Z,7.47
2022-12-11T00:53:17.267Z,7.35
2022-12-11T00:55:44.581Z,7.56
2022-12-11T00:58:12.688Z,7.69
2022-12-11T01:00:41.140Z,7.85
2022-12-11T01:03:08.499Z,7.65
2022-12-11T01:05:36.200Z,7.64
2022-12-11T01:08:03.868Z,7.78
2022-12-11T01:10:31.853Z,7.86
2022-12-11T01:13:06.031Z,8.04
2022-12-11T01:15:41.506Z,8.02
2022-12-11T01:18:14.385Z,8.09
2022-12-11T01:20:42.821Z,8.14
2022-12-11T01:23:13.182Z,8.21
2022-12-11T01:25:41.224Z,8.21
2022-12-11T01:28:09.054Z,8.26
2022-12-11T01:30:36.885Z,8.33
2022-12-11T01:33:04.162Z,8.46
2022-12-11T01:35:31.439Z,8.51
2022-12-11T01:37:59.867Z,8.56
2022-12-11T01:40:27.109Z,8.54
2022-12-11T01:42:54.478Z,8.75
2022-12-11T01:45:23.802Z,8.75
2022-12-11T01:47:58.676Z,8.67
2022-12-11T01:50:26.237Z,8.76
2022-12-11T01:52:53.907Z,8.69
2022-12-11T01:55:21.925Z,8.62
2022-12-11T01:57:51.119Z,8.68
2022-12-11T02:00:19.676Z,8.72
2022-12-11T02:02:46.919Z,8.60
2022-12-11T02:05:14.296Z,8.61
2022-12-11T02:07:50.709Z,8.87
2022-12-11T02:10:18.988Z,8.83
2022-12-11T02:12:58.105Z,8.88
2022-12-11T02:15:35.917Z,8.76
2022-12-11T02:18:29.024Z,8.84
2022-12-11T02:21:05.927Z,8.91
2022-12-11T02:23:53.268Z,9.04
2022-12-11T02:26:23.443Z,9.04
2022-12-11T02:28:58.507Z,9.05
2022-12-11T02:31:37.293Z,8.91
2022-12-11T02:34:30.946Z,8.94
2022-12-11T02:37:02.501Z,8.92
2022-12-11T02:39:31.506Z,9.04
2022-12-11T02:41:59.885Z,8.99
2022-12-11T02:44:30.830Z,9.00
2022-12-11T02:46:58.879Z,9.08
2022-12-11T02:49:28.501Z,8.97
2022-12-11T02:51:58.283Z,9.12
2022-12-11T02:54:32.151Z,9.17
2022-12-11T02:57:06.520Z,9.06
2022-12-11T02:59:41.102Z,9.03
2022-12-11T03:02:08.419Z,9.11
2022-12-11T03:04:36.644Z,9.09
2022-12-11T03:07:16.233Z,9.23
2022-12-11T03:09:45.761Z,9.07
2022-12-11T03:12:17.900Z,9.06
2022-12-11T03:14:45.656Z,8.82
2022-12-11T03:17:18.503Z,8.88
2022-12-11T03:19:51.699Z,8.87
2022-12-11T03:22:34.202Z,8.86
2022-12-11T03:25:07.289Z,9.06
2022-12-11T03:27:50.032Z,9.23
2022-12-11T03:30:19.772Z,8.99
2022-12-11T03:32:56.661Z,8.88
2022-12-11T03:35:31.117Z,8.77
2022-12-11T03:38:04.110Z,8.77
2022-12-11T03:40:34.324Z,8.55
2022-12-11T03:43:02.932Z,8.59
2022-12-11T03:45:30.696Z,8.61
2022-12-11T03:48:00.128Z,8.50
2022-12-11T03:50:31.208Z,8.48
2022-12-11T03:53:00.719Z,8.66
2022-12-11T03:55:29.852Z,8.61
2022-12-11T03:57:57.190Z,8.67
2022-12-11T04:00:24.992Z,8.72
2022-12-11T04:03:13.605Z,8.83
2022-12-11T04:05:50.198Z,8.94
2022-12-11T04:08:20.929Z,9.07
2022-12-11T04:10:48.741Z,9.21
2022-12-11T04:13:15.882Z,9.20
2022-12-11T04:15:43.108Z,9.21
2022-12-11T04:18:49.346Z,9.28
2022-12-11T04:21:39.493Z,9.17
2022-12-11T04:24:17.379Z,9.12
2022-12-11T04:26:46.839Z,8.93
2022-12-11T04:29:15.460Z,9.04
2022-12-11T04:31:45.938Z,8.92
2022-12-11T04:34:13.195Z,8.85
2022-12-11T04:36:40.396Z,8.99
2022-12-11T04:39:07.547Z,8.89
2022-12-11T04:41:35.809Z,9.00
2022-12-11T04:44:05.783Z,8.98
2022-12-11T04:46:33.846Z,9.15
2022-12-11T04:49:01.391Z,9.39
2022-12-11T04:51:29.071Z,9.47
2022-12-11T04:53:56.611Z,9.29
2022-12-11T04:56:23.736Z,9.17
2022-12-11T04:58:50.901Z,9.30
2022-12-11T05:01:21.691Z,9.51
2022-12-11T05:03:49.168Z,9.42
2022-12-11T05:06:17.323Z,9.39
2022-12-11T05:08:45.620Z,9.19
2022-12-11T05:11:15.453Z,9.10
2022-12-11T05:13:43.693Z,9.03
2022-12-11T05:16:13.627Z,8.99
2022-12-11T05:18:40.825Z,9.05
2022-12-11T05:21:10.790Z,9.10
2022-12-11T05:23:38.731Z,9.16
2022-12-11T05:26:09.533Z,9.17
2022-12-11T05:28:39.098Z,9.10
2022-12-11T05:31:18.505Z,9.05
2022-12-11T05:33:47.657Z,9.11
2022-12-11T05:36:28.579Z,9.25
2022-12-11T05:38:57.280Z,9.54
2022-12-11T05:41:27.499Z,9.59
2022-12-11T05:43:54.870Z,9.51
2022-12-11T05:46:27.108Z,9.35
2022-12-11T05:48:57.384Z,9.34
2022-12-11T05:51:25.483Z,9.31
2022-12-11T05:53:53.800Z,9.52
2022-12-11T05:56:26.838Z,9.39
2022-12-11T05:58:54.960Z,9.40
2022-12-11T06:01:26.630Z,9.51
2022-12-11T06:03:55.605Z,9.54
2022-12-11T06:06:23.624Z,9.60
2022-12-11T06:08:51.720Z,9.80
2022-12-11T06:11:23.975Z,9.75
2022-12-11T06:13:53.056Z,9.81
2022-12-11T06:16:21.190Z,9.81
2022-12-11T06:18:48.490Z,9.80
2022-12-11T06:21:24.624Z,9.71
2022-12-11T06:23:54.286Z,9.38
2022-12-11T06:26:22.451Z,9.32
2022-12-11T06:28:50.446Z,9.35
2022-12-11T06:31:18.755Z,9.39
2022-12-11T06:33:46.750Z,9.56
2022-12-11T06:36:17.134Z,9.37
2022-12-11T06:38:46.545Z,9.21
2022-12-11T06:41:13.815Z,9.00
2022-12-11T06:43:43.070Z,9.06
2022-12-11T06:46:13.923Z,9.20
2022-12-11T06:48:42.917Z,9.36
2022-12-11T06:51:15.454Z,9.71
2022-12-11T06:53:43.245Z,9.75
2022-12-11T06:56:14.052Z,9.80
2022-12-11T06:58:42.514Z,9.88
2022-12-11T07:01:24.350Z,9.86
2022-12-11T07:03:54.016Z,9.86
2022-12-11T07:06:21.718Z,9.88
2022-12-11T07:08:49.120Z,9.76
2022-12-11T07:11:17.991Z,9.76
2022-12-11T07:13:48.075Z,9.73
2022-12-11T07:16:17.201Z,9.71
2022-12-11T07:18:48.586Z,9.49
2022-12-11T07:21:16.293Z,9.44
2022-12-11T07:23:43.768Z,9.59
2022-12-11T07:26:13.919Z,9.51
2022-12-11T07:28:41.628Z,9.40
2022-12-11T07:31:11.165Z,9.38
2022-12-11T07:33:38.638Z,9.26
2022-12-11T07:36:07.733Z,9.27
2022-12-11T07:38:35.827Z,9.32
2022-12-11T07:41:05.616Z,9.31
2022-12-11T07:43:33.895Z,9.34
2022-12-11T07:46:06.915Z,9.58
2022-12-11T07:48:39.184Z,9.49
2022-12-11T07:51:12.403Z,9.66
2022-12-11T07:53:39.725Z,9.55
2022-12-11T07:56:07.680Z,9.62
2022-12-11T07:58:39.134Z,9.73
2022-12-11T08:01:10.726Z,9.71
2022-12-11T08:03:37.890Z,9.65
2022-12-11T08:06:05.571Z,9.40
2022-12-11T08:08:32.985Z,9.58
2022-12-11T08:11:12.547Z,9.71
2022-12-11T08:13:41.014Z,9.50
2022-12-11T08:16:10.389Z,9.50
2022-12-11T08:18:39.113Z,9.53
2022-12-11T08:21:07.873Z,9.79
2022-12-11T08:23:35.313Z,9.82
2022-12-11T08:26:04.565Z,9.73
2022-12-11T08:28:32.344Z,9.68
2022-12-11T08:31:00.872Z,9.76
2022-12-11T08:33:28.250Z,9.94
2022-12-11T08:35:56.050Z,9.91
2022-12-11T08:38:25.601Z,10.14
2022-12-11T08:40:52.925Z,10.44
2022-12-11T08:43:20.166Z,10.44
2022-12-11T08:45:47.417Z,10.47
2022-12-11T08:48:14.756Z,10.63
2022-12-11T08:50:43.069Z,10.69
2022-12-11T08:53:10.451Z,10.87
2022-12-11T08:55:37.904Z,10.98
2022-12-11T08:58:05.621Z,11.08
2022-12-11T09:00:33.181Z,11.14
2022-12-11T09:03:00.376Z,11.25
2022-12-11T09:05:27.474Z,11.20
2022-12-11T09:07:54.833Z,11.24
2022-12-11T09:10:22.176Z,11.37
2022-12-11T09:12:49.197Z,11.22
2022-12-11T09:15:16.476Z,11.08
2022-12-11T09:17:43.671Z,11.24
2022-12-11T09:20:11.480Z,11.38
2022-12-11T09:22:38.808Z,11.58
2022-12-11T09:25:06.652Z,11.67
2022-12-11T09:27:34.557Z,11.75
2022-12-11T09:30:02.028Z,11.76
2022-12-11T09:32:31.692Z,11.67
2022-12-11T09:34:58.795Z,11.79
2022-12-11T09:37:25.914Z,12.01
2022-12-11T09:39:53.197Z,11.92
2022-12-11T09:42:30.498Z,12.09
2022-12-11T09:45:02.050Z,12.19
2022-12-11T09:47:50.254Z,12.52
2022-12-11T09:50:28.145Z,12.39
2022-12-11T09:53:05.677Z,12.39
2022-12-11T09:55:44.857Z,12.46
2022-12-11T09:58:28.271Z,12.89
2022-12-11T10:01:07.706Z,12.92
2022-12-11T10:04:06.289Z,13.15
2022-12-11T10:07:07.116Z,13.11
2022-12-11T10:09:49.113Z,13.15
2022-12-11T10:12:28.295Z,13.08
2022-12-11T10:15:08.732Z,12.96
2022-12-11T10:17:38.622Z,12.99
2022-12-11T10:20:35.188Z,13.03
2022-12-11T10:23:06.594Z,13.05
2022-12-11T10:25:45.371Z,12.76
2022-12-11T10:28:18.081Z,12.79
2022-12-11T10:31:01.872Z,12.79
2022-12-11T10:33:49.278Z,12.94
2022-12-11T10:36:22.116Z,12.90
2022-12-11T10:38:50.405Z,13.02
2022-12-11T10:41:33.930Z,13.23
2022-12-11T10:44:02.042Z,13.39
2022-12-11T10:46:33.021Z,13.15
2022-12-11T10:49:01.506Z,13.09
2022-12-11T10:51:31.532Z,13.17
2022-12-11T10:54:07.362Z,13.33
2022-12-11T10:56:37.856Z,12.94
2022-12-11T10:59:05.366Z,12.76
2022-12-11T11:01:33.278Z,12.69
2022-12-11T11:04:06.750Z,12.71
2022-12-11T11:06:34.222Z,12.92
2022-12-11T11:09:02.382Z,13.01
2022-12-11T11:11:36.882Z,13.08
2022-12-11T11:14:17.142Z,13.04
2022-12-11T11:16:48.020Z,12.99
2022-12-11T11:19:21.854Z,12.89
2022-12-11T11:21:55.714Z,12.88
2022-12-11T11:24:31.511Z,13.04
2022-12-11T11:27:14.353Z,13.09
2022-12-11T11:29:43.538Z,13.29
2022-12-11T11:32:38.839Z,13.39
2022-12-11T11:35:12.584Z,13.30
2022-12-11T11:37:54.605Z,13.62
2022-12-11T11:40:38.136Z,13.52
2022-12-11T11:43:16.651Z,13.65
2022-12-11T11:46:18.608Z,13.87
2022-12-11T11:49:12.235Z,13.86
2022-12-11T11:52:09.053Z,13.96
2022-12-11T11:54:42.334Z,13.98
2022-12-11T11:57:33.046Z,14.16
2022-12-11T12:00:10.864Z,13.95
2022-12-11T12:02:42.330Z,14.01
2022-12-11T12:05:13.888Z,14.08
2022-12-11T12:07:48.205Z,14.31
2022-12-11T12:10:26.605Z,14.38
2022-12-11T12:13:48.225Z,14.35
2022-12-11T12:19:57.885Z,14.18
2022-12-11T12:23:00.605Z,14.16
2022-12-11T12:25:39.861Z,14.00
2022-12-11T12:28:16.202Z,13.84
2022-12-11T12:31:21.990Z,13.80
2022-12-11T12:34:07.981Z,14.01
2022-12-11T12:37:19.899Z,13.98
2022-12-11T12:40:02.718Z,14.04
2022-12-11T12:42:48.656Z,14.10
2022-12-11T12:45:15.997Z,13.92
2022-12-11T12:47:53.073Z,13.86
2022-12-11T12:50:27.161Z,13.85
2022-12-11T12:52:56.542Z,13.86
2022-12-11T12:55:29.681Z,13.79
2022-12-11T12:58:05.735Z,13.78
2022-12-11T13:00:32.807Z,13.87
2022-12-11T13:03:11.794Z,13.84
2022-12-11T13:05:46.289Z,13.95
2022-12-11T13:08:24.155Z,13.99
2022-12-11T13:11:01.082Z,14.24
2022-12-11T13:13:37.263Z,14.16
2022-12-11T13:16:16.718Z,14.22
2022-12-11T13:18:47.572Z,13.93
2022-12-11T13:21:32.838Z,14.03
2022-12-11T13:24:21.733Z,13.97
2022-12-11T13:26:50.576Z,13.88
2022-12-11T13:29:33.186Z,13.91
2022-12-11T13:32:05.178Z,13.81
2022-12-11T13:34:34.056Z,13.84
2022-12-11T13:37:04.088Z,13.79
2022-12-11T13:39:35.216Z,13.93
2022-12-11T13:42:06.293Z,13.84
2022-12-11T13:44:40.823Z,13.84
2022-12-11T13:47:14.376Z,13.62
2022-12-11T13:49:44.951Z,13.79
2022-12-11T13:52:21.928Z,13.90
2022-12-11T13:54:51.492Z,13.90
2022-12-11T13:57:23.260Z,13.93
2022-12-11T14:00:00.265Z,13.70
2022-12-11T14:02:35.655Z,13.78
2022-12-11T14:05:07.271Z,13.79
2022-12-11T14:07:47.224Z,13.70
2022-12-11T14:10:17.274Z,13.78
2022-12-11T14:12:56.789Z,13.75
2022-12-11T14:15:25.017Z,13.57
2022-12-11T14:17:53.036Z,13.62
2022-12-11T14:20:25.349Z,13.65
2022-12-11T14:22:52.665Z,13.44
2022-12-11T14:25:26.261Z,13.34
2022-12-11T14:27:55.288Z,13.23
2022-12-11T14:30:30.173Z,13.31
2022-12-11T14:33:05.486Z,13.41
2022-12-11T14:35:42.085Z,13.33
2022-12-11T14:38:29.511Z,13.53
2022-12-11T14:41:05.562Z,13.43
2022-12-11T14:43:38.629Z,13.43
2022-12-11T14:46:11.710Z,13.58
2022-12-11T14:48:53.865Z,13.51
2022-12-11T14:51:29.206Z,13.60
2022-12-11T14:53:56.722Z,13.50
2022-12-11T14:56:28.091Z,13.53
2022-12-11T14:59:05.432Z,13.53
2022-12-11T15:01:35.448Z,13.42
2022-12-11T15:04:20.104Z,13.36
2022-12-11T15:06:49.165Z,13.35
2022-12-11T15:09:43.556Z,13.37
2022-12-11T15:12:19.851Z,13.23
2022-12-11T15:14:53.192Z,13.20
2022-12-11T15:17:21.938Z,13.28
2022-12-11T15:19:55.562Z,13.10
2022-12-11T15:22:27.335Z,13.02
2022-12-11T15:24:55.061Z,13.25
2022-12-11T15:27:39.957Z,13.38
2022-12-11T15:30:26.608Z,13.32
2022-12-11T15:33:12.273Z,13.29
2022-12-11T15:35:52.322Z,13.16
2022-12-11T15:38:35.868Z,13.34
2022-12-11T15:41:04.406Z,13.16
2022-12-11T15:43:36.249Z,13.13
2022-12-11T15:46:04.951Z,13.34
2022-12-11T15:48:32.412Z,13.30
2022-12-11T15:50:59.528Z,13.45
2022-12-11T15:53:26.815Z,13.25
2022-12-11T15:55:54.765Z,13.15
2022-12-11T15:58:25.910Z,13.03
2022-12-11T16:00:53.990Z,12.83
2022-12-11T16:03:23.703Z,12.96
2022-12-11T16:05:52.522Z,12.81
2022-12-11T16:08:23.688Z,12.97
2022-12-11T16:10:53.456Z,12.76
2022-12-11T16:13:20.792Z,12.90
2022-12-11T16:15:49.682Z,12.79
2022-12-11T16:18:21.957Z,12.61
2022-12-11T16:20:49.974Z,12.61
2022-12-11T16:23:17.653Z,12.65
2022-12-11T16:25:46.769Z,12.61
2022-12-11T16:28:15.916Z,12.47
2022-12-11T16:30:43.706Z,12.47
2022-12-11T16:33:13.179Z,12.60
2022-12-11T16:35:42.999Z,12.79
2022-12-11T16:38:11.877Z,12.86
2022-12-11T16:40:39.256Z,12.77
2022-12-11T16:43:06.932Z,12.55
2022-12-11T16:45:34.250Z,12.56
2022-12-11T16:48:05.205Z,12.62
2022-12-11T16:50:32.568Z,12.68
2022-12-11T16:52:59.759Z,12.48
2022-12-11T16:55:26.951Z,12.60
2022-12-11T16:57:55.284Z,12.44
2022-12-11T17:00:27.191Z,12.61
2022-12-11T17:02:54.308Z,12.61
2022-12-11T17:05:24.992Z,12.41
2022-12-11T17:07:52.466Z,12.39
2022-12-11T17:10:19.610Z,12.41
2022-12-11T17:12:46.802Z,12.47
2022-12-11T17:15:14.107Z,12.64
2022-12-11T17:17:43.320Z,12.60
2022-12-11T17:20:11.539Z,12.56
2022-12-11T17:22:38.949Z,12.56
2022-12-11T17:25:07.089Z,12.51
2022-12-11T17:27:34.712Z,12.47
2022-12-11T17:30:01.972Z,12.32
2022-12-11T17:32:30.489Z,12.36
2022-12-11T17:34:57.561Z,12.41
2022-12-11T17:37:24.858Z,12.46
2022-12-11T17:39:51.967Z,12.45
2022-12-11T17:42:19.144Z,12.27
2022-12-11T17:44:46.273Z,12.32
2022-12-11T17:47:13.574Z,12.16
2022-12-11T17:49:40.764Z,12.06
2022-12-11T17:52:08.300Z,12.06
2022-12-11T17:54:35.470Z,12.15
2022-12-11T17:57:02.559Z,12.16
2022-12-11T17:59:31.587Z,12.35
2022-12-11T18:01:59.281Z,12.16
2022-12-11T18:04:26.485Z,12.30
2022-12-11T18:06:54.096Z,12.51
2022-12-11T18:09:21.373Z,12.40
2022-12-11T18:11:48.458Z,12.34
2022-12-11T18:14:17.621Z,12.30
2022-12-11T18:16:45.111Z,12.14
2022-12-11T18:19:13.022Z,12.14
2022-12-11T18:21:42.924Z,12.28
2022-12-11T18:24:10.607Z,12.00
2022-12-11T18:26:37.860Z,11.93
2022-12-11T18:29:05.474Z,12.09
2022-12-11T18:31:36.301Z,12.00
2022-12-11T18:34:07.014Z,11.79
2022-12-11T18:36:35.013Z,11.76
2022-12-11T18:39:03.399Z,11.82
2022-12-11T18:41:30.558Z,11.81
2022-12-11T18:44:05.185Z,11.94
2022-12-11T18:46:35.491Z,11.96
2022-12-11T18:49:02.862Z,12.05
2022-12-11T18:51:30.585Z,11.91
2022-12-11T18:53:59.269Z,11.66
2022-12-11T18:56:26.913Z,11.56
2022-12-11T18:58:54.290Z,11.53
2022-12-11T19:01:25.553Z,11.55
2022-12-11T19:04:05.321Z,11.46
2022-12-11T19:06:35.805Z,11.44
2022-12-11T19:09:05.458Z,11.55
2022-12-11T19:11:34.744Z,11.63
2022-12-11T19:14:02.465Z,11.75
2022-12-11T19:16:35.340Z,11.95
2022-12-11T19:19:05.788Z,12.01
2022-12-11T19:21:35.554Z,12.10
2022-12-11T19:24:02.754Z,12.16
2022-12-11T19:26:31.053Z,12.22
2022-12-11T19:29:00.680Z,12.21
2022-12-11T19:31:30.126Z,12.34
2022-12-11T19:33:58.256Z,12.15
2022-12-11T19:36:27.617Z,12.15
2022-12-11T19:39:01.153Z,11.94
2022-12-11T19:41:29.978Z,11.69
2022-12-11T19:43:58.803Z,11.55
2022-12-11T19:46:27.847Z,11.67
2022-12-11T19:49:00.009Z,11.45
2022-12-11T19:51:33.988Z,11.56
2022-12-11T19:54:05.047Z,11.63
2022-12-11T19:56:33.171Z,11.34
2022-12-11T19:59:03.019Z,11.32
2022-12-11T20:01:33.004Z,11.36
2022-12-11T20:04:08.008Z,11.47
2022-12-11T20:06:36.368Z,11.69
2022-12-11T20:09:10.923Z,11.39
2022-12-11T20:11:44.838Z,11.56
2022-12-11T20:14:22.428Z,11.66
2022-12-11T20:19:38.033Z,11.57
2022-12-11T20:22:05.762Z,11.56
2022-12-11T20:24:34.241Z,11.62
2022-12-11T20:27:01.681Z,11.81
2022-12-11T20:29:28.910Z,11.93
2022-12-11T20:31:59.940Z,12.11
2022-12-11T20:34:28.068Z,12.07
2022-12-11T20:36:56.398Z,12.05
2022-12-11T20:39:23.795Z,12.25
2022-12-11T20:41:51.506Z,12.33
2022-12-11T20:44:20.221Z,12.23
2022-12-11T20:46:47.636Z,12.33
2022-12-11T20:49:14.843Z,12.06
2022-12-11T20:51:42.160Z,12.03
2022-12-11T20:54:09.843Z,11.99
2022-12-11T20:56:38.105Z,11.95
2022-12-11T20:59:05.314Z,12.19
2022-12-11T21:01:33.691Z,12.23
2022-12-11T21:04:01.144Z,12.16
2022-12-11T21:06:32.330Z,12.19
2022-12-11T21:09:01.713Z,12.13
2022-12-11T21:11:29.246Z,12.04
2022-12-11T21:13:56.793Z,12.01
2022-12-11T21:16:24.613Z,12.36
2022-12-11T21:18:52.133Z,12.34
2022-12-11T21:21:20.248Z,12.22
2022-12-11T21:23:48.458Z,12.25
2022-12-11T21:26:15.739Z,12.43
2022-12-11T21:28:43.926Z,12.39
2022-12-11T21:31:14.497Z,12.32
2022-12-11T21:33:41.967Z,12.24
2022-12-11T21:36:11.788Z,12.25
2022-12-11T21:38:41.328Z,12.06
2022-12-11T21:41:17.386Z,12.22
2022-12-11T21:44:56.604Z,12.16
2022-12-11T21:46:33.551Z,12.34
2022-12-11T21:49:00.757Z,12.20
2022-12-11T21:51:36.484Z,12.26
2022-12-11T21:54:06.948Z,12.16
2022-12-11T21:56:34.610Z,12.00
2022-12-11T21:59:02.464Z,11.84
2022-12-11T22:01:33.796Z,11.86
2022-12-11T22:04:01.829Z,11.78
2022-12-11T22:06:29.082Z,11.68
2022-12-11T22:08:56.304Z,11.53
2022-12-11T22:11:27.609Z,11.66
2022-12-11T22:13:54.981Z,11.62
2022-12-11T22:16:22.705Z,11.61
2022-12-11T22:18:49.900Z,11.71
2022-12-11T22:21:17.432Z,11.84
2022-12-11T22:23:44.939Z,11.84
2022-12-11T22:26:17.560Z,12.04
2022-12-11T22:28:44.815Z,11.83
2022-12-11T22:31:13.775Z,11.72
2022-12-11T22:33:41.737Z,11.50
2022-12-11T22:36:10.628Z,11.31
2022-12-11T22:38:38.320Z,11.32
2022-12-11T22:41:20.528Z,11.49
2022-12-11T22:43:49.399Z,11.40
2022-12-11T22:46:18.094Z,11.47
2022-12-11T22:48:45.667Z,11.66
2022-12-11T22:51:13.102Z,11.79
2022-12-11T22:53:40.498Z,11.69
2022-12-11T22:56:09.321Z,11.88
2022-12-11T22:58:37.146Z,11.88
2022-12-11T23:01:12.244Z,11.79
2022-12-11T23:03:39.826Z,11.69
2022-12-11T23:06:11.551Z,11.68
2022-12-11T23:08:40.610Z,11.66
2022-12-11T23:11:17.453Z,11.63
2022-12-11T23:13:44.583Z,11.58
2022-12-11T23:16:12.559Z,11.74
2022-12-11T23:18:39.952Z,11.87
2022-12-11T23:21:08.351Z,11.66
2022-12-11T23:23:35.522Z,11.61
2022-12-11T23:26:02.803Z,11.43
2022-12-11T23:28:30.237Z,11.64
2022-12-11T23:30:57.432Z,11.39
2022-12-11T23:33:26.269Z,11.13
2022-12-11T23:35:54.947Z,11.26
2022-12-11T23:38:22.029Z,11.21
2022-12-11T23:40:49.810Z,11.05
2022-12-11T23:43:17.679Z,11.17
2022-12-11T23:45:45.846Z,11.02
2022-12-11T23:48:14.195Z,11.05
2022-12-11T23:50:43.337Z,11.17
2022-12-11T23:53:11.446Z,11.10
2022-12-11T23:55:40.514Z,10.96
2022-12-11T23:58:08.167Z,10.74
